Howardville, Missouri
Current Conditions -  °F | °C
As of 4:15 PM on Friday 31 Oct 2014 (Local Time) from KUCY Reporting Station
Scattered Clouds Scattered Clouds  
Wind Chill: 39°   Ceiling: Unl
Heat Index: 46°   Visibility: 10mi
Dew Point: 25°   Wind: 20mph
Humidity: 43%   Direction: 360°N
Pressure: 30.19"   Gusts: NA
Location:  36.6317°N, 89.5078°W
Report Text: KUCY 312115Z AUTO 36017KT 10SM SCT060 08/M04 A3019 RMK
Loading
Personal Weather Stations






























Interactive Weather Map
Tropical Storm Tracking
New forecast layout! Learn more

10-Day Weather Forecast

Advertisements
Track Severe Weather on mobile